Terminal Aerodrome Forecast
Issued by NWS

Current Version | Previous Version | Text Only | Print | Product List | Glossary On
Versions: 1 2 3 4 5 6 7 8 9 10 11 12 13 14 15 16 17 18 19 20
956
FTUS42 KILM 301330 AAA
TAFCRE
TAF AMD
KCRE 301330Z 3014/0112 18011KT P6SM BKN020 OVC030
     FM301800 18016G22KT P6SM SKC
     FM010300 19013KT P6SM SKC
     FM010600 20013KT P6SM OVC050
     FM010900 20011KT 6SM BR OVC015=

USA.gov is the U.S. government's official web portal to all federal, state and local government web resources and services.